createdAt,value
2023-01-30T00:03:23.915Z,78.18
2023-01-30T00:08:26.044Z,78.27
2023-01-30T00:13:27.626Z,78.45
2023-01-30T00:18:29.744Z,78.35
2023-01-30T00:23:32.924Z,78.67
2023-01-30T00:28:35.537Z,78.54
2023-01-30T00:33:39.620Z,78.81
2023-01-30T00:38:41.479Z,78.94
2023-01-30T00:44:01.711Z,78.87
2023-01-30T00:49:03.386Z,78.62
2023-01-30T00:54:05.109Z,78.92
2023-01-30T00:59:06.925Z,78.91
2023-01-30T01:04:10.406Z,79.04
2023-01-30T01:09:12.168Z,79.28
2023-01-30T01:14:15.344Z,79.34
2023-01-30T01:19:17.416Z,79.13
2023-01-30T01:24:19.150Z,79.20
2023-01-30T01:29:20.948Z,79.70
2023-01-30T01:34:22.688Z,79.42
2023-01-30T01:39:24.350Z,79.19
2023-01-30T01:44:26.041Z,79.16
2023-01-30T01:49:35.233Z,79.17
2023-01-30T01:54:45.239Z,78.89
2023-01-30T01:59:54.771Z,79.56
2023-01-30T02:05:02.955Z,79.80
2023-01-30T02:10:06.704Z,79.99
2023-01-30T02:15:08.936Z,79.68
2023-01-30T02:20:32.312Z,80.01
2023-01-30T02:26:05.204Z,80.39
2023-01-30T02:31:25.979Z,80.32
2023-01-30T02:36:28.204Z,80.44
2023-01-30T02:41:47.342Z,80.57
2023-01-30T02:47:07.880Z,80.52
2023-01-30T02:52:12.547Z,80.59
2023-01-30T02:57:23.259Z,80.25
2023-01-30T03:03:07.446Z,80.50
2023-01-30T03:08:54.038Z,80.52
2023-01-30T03:14:06.275Z,80.46
2023-01-30T03:19:13.734Z,80.41
2023-01-30T03:24:16.742Z,80.54
2023-01-30T03:29:18.487Z,80.35
2023-01-30T03:34:20.261Z,80.44
2023-01-30T03:39:24.351Z,80.03
2023-01-30T03:44:26.862Z,80.07
2023-01-30T03:49:28.768Z,79.48
2023-01-30T03:54:32.115Z,79.82
2023-01-30T03:59:34.165Z,80.26
2023-01-30T04:04:41.316Z,79.96
2023-01-30T04:09:45.347Z,80.38
2023-01-30T04:14:47.787Z,79.88
2023-01-30T04:20:01.278Z,80.04
2023-01-30T04:25:05.575Z,80.09
2023-01-30T04:30:07.869Z,79.93
2023-01-30T04:35:10.395Z,79.73
2023-01-30T04:40:13.089Z,79.61
2023-01-30T04:45:15.120Z,79.76
2023-01-30T04:50:18.154Z,79.41
2023-01-30T04:55:20.183Z,79.74
2023-01-30T05:00:22.124Z,79.38
2023-01-30T05:05:29.343Z,79.02
2023-01-30T05:10:31.365Z,78.74
2023-01-30T05:15:33.842Z,79.04
2023-01-30T05:20:38.007Z,79.06
2023-01-30T05:25:39.711Z,79.51
2023-01-30T05:30:41.613Z,79.87
2023-01-30T05:35:47.797Z,79.82
2023-01-30T05:41:04.024Z,79.41
2023-01-30T05:46:06.714Z,78.95
2023-01-30T05:51:15.407Z,79.21
2023-01-30T05:56:18.038Z,79.22
2023-01-30T06:01:20.109Z,79.45
2023-01-30T06:06:22.777Z,79.47
2023-01-30T06:11:25.076Z,79.33
2023-01-30T06:16:26.899Z,78.86
2023-01-30T06:21:28.572Z,78.06
2023-01-30T06:26:30.470Z,78.06
2023-01-30T06:31:32.135Z,77.86
2023-01-30T06:36:33.928Z,77.69
2023-01-30T06:41:35.659Z,77.28
2023-01-30T06:46:37.294Z,77.34
2023-01-30T06:51:39.081Z,77.15
2023-01-30T06:56:40.994Z,76.58
2023-01-30T07:01:42.742Z,76.52
2023-01-30T07:06:44.463Z,76.91
2023-01-30T07:11:47.690Z,76.48
2023-01-30T07:16:49.346Z,76.78
2023-01-30T07:21:51.157Z,77.05
2023-01-30T07:26:52.796Z,76.68
2023-01-30T07:31:54.574Z,76.32
2023-01-30T07:36:56.247Z,76.25
2023-01-30T07:42:00.847Z,76.08
2023-01-30T07:47:02.562Z,75.94
2023-01-30T07:52:04.236Z,76.47
2023-01-30T07:57:06.034Z,76.34
2023-01-30T08:02:10.148Z,75.61
2023-01-30T08:07:11.946Z,75.86
2023-01-30T08:12:13.657Z,75.37
2023-01-30T08:17:15.252Z,75.79
2023-01-30T08:22:17.364Z,75.29
2023-01-30T08:27:19.049Z,75.01
2023-01-30T08:32:20.727Z,75.13
2023-01-30T08:37:22.359Z,75.21
2023-01-30T08:42:24.030Z,75.35
2023-01-30T08:47:25.776Z,74.58
2023-01-30T08:52:27.465Z,75.13
2023-01-30T08:57:29.128Z,74.86
2023-01-30T09:02:31.112Z,74.27
2023-01-30T09:07:33.327Z,74.30
2023-01-30T09:12:35.212Z,74.68
2023-01-30T09:17:38.217Z,74.75
2023-01-30T09:22:39.951Z,74.41
2023-01-30T09:27:44.448Z,74.16
2023-01-30T09:32:46.150Z,73.87
2023-01-30T09:37:50.473Z,73.64
2023-01-30T09:42:59.979Z,73.96
2023-01-30T09:48:20.784Z,73.27
2023-01-30T09:53:59.483Z,72.79
2023-01-30T09:59:04.406Z,72.39
2023-01-30T10:04:14.730Z,71.40
2023-01-30T10:09:46.835Z,70.87
2023-01-30T10:15:14.680Z,70.70
2023-01-30T10:20:34.704Z,70.73
2023-01-30T10:25:47.152Z,71.00
2023-01-30T10:30:52.739Z,70.91
2023-01-30T10:36:06.541Z,71.47
2023-01-30T10:41:31.959Z,71.59
2023-01-30T10:46:52.387Z,71.62
2023-01-30T10:52:00.113Z,72.31
2023-01-30T10:57:11.925Z,72.98
2023-01-30T11:02:16.579Z,73.48
2023-01-30T11:07:18.928Z,73.79
2023-01-30T11:12:20.678Z,73.64
2023-01-30T11:17:32.786Z,73.00
2023-01-30T11:22:36.746Z,72.96
2023-01-30T11:27:42.481Z,72.54
2023-01-30T11:32:47.651Z,72.45
2023-01-30T11:37:53.300Z,73.40
2023-01-30T11:43:10.440Z,73.27
2023-01-30T11:48:34.104Z,72.72
2023-01-30T11:53:56.174Z,72.60
2023-01-30T11:59:28.106Z,72.46
2023-01-30T12:04:30.017Z,72.76
2023-01-30T12:09:35.679Z,72.38
2023-01-30T12:14:43.465Z,72.79
2023-01-30T12:19:51.865Z,72.41
2023-01-30T12:25:25.160Z,72.77
2023-01-30T12:30:30.272Z,72.42
2023-01-30T12:35:54.459Z,72.87
2023-01-30T12:41:31.487Z,73.41
2023-01-30T12:46:58.814Z,73.28
2023-01-30T12:52:31.928Z,73.18
2023-01-30T12:58:00.526Z,73.49
2023-01-30T13:03:23.741Z,73.73
2023-01-30T13:08:35.455Z,73.87
2023-01-30T13:13:46.053Z,74.83
2023-01-30T13:19:12.660Z,75.34
2023-01-30T13:24:43.450Z,76.86
2023-01-30T13:29:47.748Z,78.00
2023-01-30T13:34:50.677Z,79.26
2023-01-30T13:40:17.212Z,80.73
2023-01-30T13:45:26.656Z,81.96
2023-01-30T13:50:55.130Z,83.55
2023-01-30T13:56:40.686Z,85.42
2023-01-30T14:02:02.059Z,87.94
2023-01-30T14:07:09.637Z,89.33
2023-01-30T14:12:24.805Z,90.53
2023-01-30T14:17:26.915Z,91.44
2023-01-30T14:22:35.349Z,92.18
2023-01-30T14:27:37.028Z,92.81
2023-01-30T14:32:55.775Z,93.22
2023-01-30T14:38:06.641Z,93.78
2023-01-30T14:43:20.370Z,94.14
2023-01-30T14:48:37.602Z,94.85
2023-01-30T14:53:59.168Z,95.12
2023-01-30T14:59:03.983Z,95.74
2023-01-30T15:04:05.781Z,95.74
2023-01-30T15:09:09.450Z,96.43
2023-01-30T15:14:20.293Z,96.32
2023-01-30T15:20:02.441Z,96.11
2023-01-30T15:25:30.806Z,95.82
2023-01-30T15:30:39.662Z,95.68
2023-01-30T15:35:42.912Z,95.52
2023-01-30T15:40:45.653Z,95.56
2023-01-30T15:46:11.789Z,95.56
2023-01-30T15:51:16.847Z,95.77
2023-01-30T15:56:28.852Z,95.82
2023-01-30T16:01:31.054Z,96.49
2023-01-30T16:06:37.493Z,96.40
2023-01-30T16:11:42.079Z,96.16
2023-01-30T16:16:46.708Z,96.17
2023-01-30T16:21:48.771Z,95.73
2023-01-30T16:26:55.227Z,95.52
2023-01-30T16:31:57.324Z,94.83
2023-01-30T16:37:07.602Z,94.31
2023-01-30T16:42:25.792Z,93.95
2023-01-30T16:47:31.433Z,94.32
2023-01-30T16:52:44.034Z,93.83
2023-01-30T16:57:53.105Z,93.88
2023-01-30T17:02:58.162Z,93.35
2023-01-30T17:08:00.541Z,93.23
2023-01-30T17:13:02.449Z,92.65
2023-01-30T17:18:04.467Z,92.39
2023-01-30T17:23:09.314Z,92.29
2023-01-30T17:28:18.187Z,91.85
2023-01-30T17:33:20.120Z,91.85
2023-01-30T17:38:21.866Z,91.58
2023-01-30T17:43:24.206Z,91.59
2023-01-30T17:48:25.825Z,91.48
2023-01-30T17:53:27.484Z,91.94
2023-01-30T17:58:29.455Z,91.52
2023-01-30T18:03:31.268Z,91.24
2023-01-30T18:08:32.952Z,91.27
2023-01-30T18:13:35.669Z,90.94
2023-01-30T18:18:38.002Z,91.18
2023-01-30T18:23:39.773Z,90.55
2023-01-30T18:28:41.567Z,90.66
2023-01-30T18:33:45.437Z,90.33
2023-01-30T18:38:47.851Z,89.93
2023-01-30T18:44:15.732Z,89.48
2023-01-30T18:49:17.417Z,88.79
2023-01-30T18:54:19.074Z,88.51
2023-01-30T18:59:21.913Z,88.19
2023-01-30T19:04:23.549Z,88.12
2023-01-30T19:09:26.696Z,87.92
2023-01-30T19:14:28.488Z,87.78
2023-01-30T19:19:30.150Z,87.86
2023-01-30T19:24:31.847Z,87.91
2023-01-30T19:29:33.540Z,87.88
2023-01-30T19:34:35.238Z,87.15
2023-01-30T19:39:36.961Z,86.73
2023-01-30T19:44:40.880Z,86.73
2023-01-30T19:49:42.627Z,86.79
2023-01-30T19:54:46.884Z,86.18
2023-01-30T19:59:48.593Z,85.94
2023-01-30T20:04:50.246Z,85.83
2023-01-30T20:09:51.987Z,85.62
2023-01-30T20:14:53.674Z,85.68
2023-01-30T20:19:55.376Z,85.92
2023-01-30T20:24:57.104Z,85.20
2023-01-30T20:29:58.901Z,85.26
2023-01-30T20:35:00.749Z,85.29
2023-01-30T20:40:02.451Z,85.47
2023-01-30T20:45:04.672Z,85.08
2023-01-30T20:50:06.608Z,84.91
2023-01-30T20:55:08.845Z,84.61
2023-01-30T21:00:12.541Z,84.57
2023-01-30T21:05:14.292Z,84.58
2023-01-30T21:10:16.332Z,84.54
2023-01-30T21:15:18.230Z,84.44
2023-01-30T21:20:20.220Z,83.98
2023-01-30T21:25:22.151Z,83.90
2023-01-30T21:30:23.818Z,84.09
2023-01-30T21:35:25.424Z,84.10
2023-01-30T21:40:45.500Z,83.68
2023-01-30T21:45:47.215Z,83.86
2023-01-30T21:50:49.200Z,83.85
2023-01-30T21:55:52.415Z,84.16
2023-01-30T22:00:54.181Z,84.19
2023-01-30T22:05:55.967Z,83.95
2023-01-30T22:11:13.433Z,83.67
2023-01-30T22:16:20.860Z,83.55
2023-01-30T22:21:24.620Z,83.65
2023-01-30T22:26:26.860Z,83.81
2023-01-30T22:31:34.284Z,83.88
2023-01-30T22:36:36.186Z,83.43
2023-01-30T22:41:38.603Z,83.42
2023-01-30T22:46:41.272Z,83.41
2023-01-30T22:51:43.627Z,83.93
2023-01-30T22:56:48.809Z,83.48
2023-01-30T23:01:51.215Z,83.41
2023-01-30T23:06:52.996Z,83.50
2023-01-30T23:12:16.270Z,83.20
2023-01-30T23:17:36.930Z,83.06
2023-01-30T23:22:38.960Z,83.11
2023-01-30T23:27:40.676Z,83.38
2023-01-30T23:32:42.355Z,83.37
2023-01-30T23:38:02.777Z,83.26
2023-01-30T23:43:04.458Z,83.35
2023-01-30T23:48:08.468Z,82.73
2023-01-30T23:53:10.686Z,82.45
2023-01-30T23:58:12.308Z,82.64
